Doyline, Louisiana
Current Conditions -  °F | °C
As of 2:55 PM on Sunday 21 Dec 2014 (Local Time) from KMNE Reporting Station
Clear Clear  
Wind Chill: 61°   Ceiling: Unl
Heat Index: 61°   Visibility: 10mi
Dew Point: 45°   Wind: 6mph
Humidity: 55%   Direction: 100°E
Pressure: 29.97"   Gusts: NA
Location:  32.54°N, 93.41°W
Report Text: KMNE 212055Z AUTO 10005KT 10SM CLR 16/07 A2997 RMK AO2
Loading
Personal Weather Stations






























Interactive Weather Map New forecast layout! Learn more

10-Day Weather Forecast

Advertisements
Track Severe Weather on mobile